createdAt,value
2022-10-22T00:00:00.365Z,66.3
2022-10-22T00:01:00.298Z,66.3
2022-10-22T00:02:00.272Z,66.0
2022-10-22T00:03:00.552Z,66.2
2022-10-22T00:04:00.270Z,66.2
2022-10-22T00:05:00.292Z,66.3
2022-10-22T00:06:00.286Z,66.2
2022-10-22T00:07:00.271Z,66.1
2022-10-22T00:08:00.462Z,65.8
2022-10-22T00:09:00.539Z,65.4
2022-10-22T00:10:00.290Z,65.3
2022-10-22T00:11:00.286Z,65.2
2022-10-22T00:12:00.288Z,65.2
2022-10-22T00:13:00.270Z,65.2
2022-10-22T00:14:00.302Z,65.2
2022-10-22T00:15:00.375Z,65.0
2022-10-22T00:16:00.288Z,64.9
2022-10-22T00:17:00.291Z,64.8
2022-10-22T00:18:00.297Z,65.0
2022-10-22T00:19:00.292Z,65.0
2022-10-22T00:20:00.291Z,64.9
2022-10-22T00:21:00.539Z,65.0
2022-10-22T00:22:00.311Z,65.1
2022-10-22T00:23:00.333Z,65.1
2022-10-22T00:24:00.477Z,64.7
2022-10-22T00:25:00.278Z,64.4
2022-10-22T00:26:00.295Z,64.2
2022-10-22T00:27:00.452Z,64.2
2022-10-22T00:28:00.334Z,64.2
2022-10-22T00:29:00.368Z,64.4
2022-10-22T00:30:00.326Z,64.5
2022-10-22T00:31:00.353Z,64.7
2022-10-22T00:32:00.355Z,65.0
2022-10-22T00:33:00.426Z,65.0
2022-10-22T00:34:00.286Z,64.9
2022-10-22T00:35:00.377Z,65.0
2022-10-22T00:36:00.349Z,65.2
2022-10-22T00:37:00.358Z,65.0
2022-10-22T00:38:00.315Z,64.9
2022-10-22T00:39:00.510Z,64.8
2022-10-22T00:40:00.316Z,64.9
2022-10-22T00:42:00.299Z,65.4
2022-10-22T00:43:00.446Z,65.4
2022-10-22T00:44:00.305Z,65.5
2022-10-22T00:45:00.431Z,65.6
2022-10-22T00:46:00.302Z,65.5
2022-10-22T00:47:00.288Z,65.4
2022-10-22T00:48:00.302Z,65.3
2022-10-22T00:49:00.303Z,65.2
2022-10-22T00:50:00.355Z,65.0
2022-10-22T00:51:00.528Z,65.0
2022-10-22T00:52:00.299Z,65.1
2022-10-22T00:53:00.309Z,65.2
2022-10-22T00:54:00.454Z,65.2
2022-10-22T00:55:00.289Z,65.2
2022-10-22T00:56:00.288Z,65.2
2022-10-22T00:57:00.440Z,65.2
2022-10-22T00:58:00.285Z,65.2
2022-10-22T00:59:00.375Z,65.2
2022-10-22T01:00:00.321Z,65.2
2022-10-22T01:01:00.360Z,65.2
2022-10-22T01:02:00.288Z,65.3
2022-10-22T01:03:00.518Z,65.4
2022-10-22T01:04:00.315Z,65.5
2022-10-22T01:05:00.318Z,65.6
2022-10-22T01:06:00.346Z,65.7
2022-10-22T01:07:00.286Z,65.8
2022-10-22T01:08:00.474Z,65.9
2022-10-22T01:09:00.502Z,65.9
2022-10-22T01:10:00.500Z,65.8
2022-10-22T01:11:00.306Z,65.8
2022-10-22T01:12:00.302Z,65.8
2022-10-22T01:13:00.347Z,66.0
2022-10-22T01:14:00.306Z,66.0
2022-10-22T01:15:00.514Z,66.2
2022-10-22T01:16:00.284Z,66.2
2022-10-22T01:17:00.287Z,66.2
2022-10-22T01:18:00.307Z,66.2
2022-10-22T01:19:00.289Z,66.1
2022-10-22T01:20:00.271Z,66.2
2022-10-22T01:21:00.502Z,66.2
2022-10-22T01:22:00.275Z,66.2
2022-10-22T01:23:00.277Z,66.2
2022-10-22T01:24:00.334Z,66.2
2022-10-22T01:25:00.426Z,66.4
2022-10-22T01:26:00.290Z,66.5
2022-10-22T01:27:00.448Z,66.7
2022-10-22T01:28:00.273Z,66.8
2022-10-22T01:29:00.289Z,66.7
2022-10-22T01:30:00.310Z,66.8
2022-10-22T01:31:00.285Z,66.8
2022-10-22T01:32:00.277Z,66.8
2022-10-22T01:33:00.456Z,67.0
2022-10-22T01:34:00.290Z,66.8
2022-10-22T01:35:00.357Z,66.9
2022-10-22T01:36:00.311Z,66.9
2022-10-22T01:37:00.325Z,66.9
2022-10-22T01:38:00.338Z,66.9
2022-10-22T01:39:00.582Z,66.8
2022-10-22T01:40:00.370Z,66.9
2022-10-22T01:41:00.439Z,67.0
2022-10-22T01:42:00.335Z,67.0
2022-10-22T01:43:00.308Z,66.7
2022-10-22T01:44:00.375Z,66.6
2022-10-22T01:45:00.459Z,66.8
2022-10-22T01:46:00.435Z,66.7
2022-10-22T01:47:00.344Z,66.7
2022-10-22T01:48:00.376Z,66.9
2022-10-22T01:49:00.375Z,66.7
2022-10-22T01:50:00.324Z,66.6
2022-10-22T01:51:00.527Z,66.4
2022-10-22T01:52:00.295Z,66.3
2022-10-22T01:53:00.305Z,66.2
2022-10-22T01:54:00.305Z,66.2
2022-10-22T01:55:00.328Z,66.1
2022-10-22T01:56:00.421Z,65.8
2022-10-22T01:57:00.457Z,65.7
2022-10-22T01:58:00.290Z,65.6
2022-10-22T01:59:00.273Z,65.7
2022-10-22T02:00:00.344Z,65.7
2022-10-22T02:01:00.408Z,65.8
2022-10-22T02:02:00.290Z,65.8
2022-10-22T02:03:00.503Z,65.9
2022-10-22T02:04:00.275Z,65.8
2022-10-22T02:05:00.306Z,65.8
2022-10-22T02:06:00.290Z,65.7
2022-10-22T02:07:00.289Z,65.6
2022-10-22T02:08:00.278Z,65.3
2022-10-22T02:09:00.582Z,65.0
2022-10-22T02:10:00.286Z,65.0
2022-10-22T02:11:00.425Z,64.9
2022-10-22T02:12:00.391Z,65.0
2022-10-22T02:13:00.329Z,65.1
2022-10-22T02:14:00.326Z,64.9
2022-10-22T02:15:00.420Z,65.0
2022-10-22T02:16:00.292Z,65.0
2022-10-22T02:17:00.286Z,65.1
2022-10-22T02:18:00.288Z,65.3
2022-10-22T02:19:00.289Z,65.4
2022-10-22T02:20:00.277Z,65.4
2022-10-22T02:21:00.510Z,65.3
2022-10-22T02:22:00.280Z,65.1
2022-10-22T02:23:00.294Z,65.2
2022-10-22T02:24:00.285Z,65.3
2022-10-22T02:25:00.331Z,65.3
2022-10-22T02:26:00.385Z,65.4
2022-10-22T02:27:00.512Z,65.4
2022-10-22T02:28:00.303Z,65.4
2022-10-22T02:29:00.286Z,65.5
2022-10-22T02:30:00.306Z,65.6
2022-10-22T02:31:00.288Z,65.7
2022-10-22T02:32:00.277Z,65.7
2022-10-22T02:33:00.504Z,65.7
2022-10-22T02:34:00.313Z,65.8
2022-10-22T02:35:00.292Z,65.9
2022-10-22T02:36:00.285Z,65.8
2022-10-22T02:37:00.273Z,65.8
2022-10-22T02:38:00.276Z,65.7
2022-10-22T02:39:00.394Z,65.5
2022-10-22T02:40:00.296Z,65.4
2022-10-22T02:41:00.373Z,65.3
2022-10-22T02:42:00.291Z,65.3
2022-10-22T02:43:00.361Z,65.2
2022-10-22T02:44:00.350Z,65.1
2022-10-22T02:45:00.428Z,65.2
2022-10-22T02:46:00.362Z,65.0
2022-10-22T02:47:00.385Z,65.0
2022-10-22T02:48:00.346Z,64.9
2022-10-22T02:49:00.318Z,64.8
2022-10-22T02:50:00.331Z,64.8
2022-10-22T02:51:00.477Z,64.8
2022-10-22T02:52:00.292Z,64.7
2022-10-22T02:53:00.277Z,64.6
2022-10-22T02:54:00.305Z,64.3
2022-10-22T02:55:00.299Z,64.1
2022-10-22T02:56:00.525Z,64.1
2022-10-22T02:57:00.383Z,63.8
2022-10-22T02:58:00.300Z,63.7
2022-10-22T02:59:00.306Z,63.6
2022-10-22T03:00:00.284Z,63.6
2022-10-22T03:01:00.315Z,63.6
2022-10-22T03:02:00.304Z,63.6
2022-10-22T03:03:00.670Z,63.5
2022-10-22T03:04:00.382Z,63.5
2022-10-22T03:05:00.340Z,63.6
2022-10-22T03:06:00.293Z,63.7
2022-10-22T03:07:00.299Z,63.6
2022-10-22T03:08:00.393Z,63.6
2022-10-22T03:09:00.731Z,63.6
2022-10-22T03:10:00.361Z,63.7
2022-10-22T03:11:00.570Z,63.9
2022-10-22T03:12:00.273Z,63.9
2022-10-22T03:13:00.294Z,63.9
2022-10-22T03:14:00.291Z,63.9
2022-10-22T03:15:00.368Z,64.0
2022-10-22T03:16:00.288Z,64.0
2022-10-22T03:17:00.312Z,64.0
2022-10-22T03:18:00.286Z,64.1
2022-10-22T03:19:00.397Z,64.1
2022-10-22T03:20:00.271Z,64.2
2022-10-22T03:21:00.407Z,64.2
2022-10-22T03:22:00.294Z,64.3
2022-10-22T03:23:00.294Z,64.4
2022-10-22T03:24:00.289Z,64.4
2022-10-22T03:25:00.300Z,64.4
2022-10-22T03:26:00.489Z,64.5
2022-10-22T03:27:00.443Z,64.5
2022-10-22T03:28:00.278Z,64.6
2022-10-22T03:29:00.275Z,65.0
2022-10-22T03:30:00.287Z,65.1
2022-10-22T03:31:00.274Z,65.2
2022-10-22T03:32:00.290Z,65.1
2022-10-22T03:33:00.425Z,65.2
2022-10-22T03:34:00.315Z,65.2
2022-10-22T03:36:00.304Z,65.6
2022-10-22T03:37:00.393Z,65.6
2022-10-22T03:38:00.348Z,65.7
2022-10-22T03:39:00.648Z,65.7
2022-10-22T03:40:00.288Z,65.7
2022-10-22T03:41:00.393Z,65.9
2022-10-22T03:42:00.310Z,66.0
2022-10-22T03:43:00.267Z,66.1
2022-10-22T03:44:00.291Z,66.1
2022-10-22T03:45:00.402Z,66.0
2022-10-22T03:46:00.295Z,66.1
2022-10-22T03:47:02.635Z,66.1
2022-10-22T03:48:00.307Z,66.1
2022-10-22T03:49:00.288Z,66.0
2022-10-22T03:50:00.286Z,66.0
2022-10-22T03:51:00.612Z,66.0
2022-10-22T03:52:00.274Z,66.1
2022-10-22T03:53:00.304Z,65.8
2022-10-22T03:54:00.275Z,65.5
2022-10-22T03:55:00.295Z,65.4
2022-10-22T03:56:00.433Z,65.4
2022-10-22T03:57:00.459Z,65.3
2022-10-22T03:58:00.303Z,65.2
2022-10-22T03:59:00.297Z,65.2
2022-10-22T04:00:00.330Z,65.2
2022-10-22T04:01:00.320Z,65.2
2022-10-22T04:02:00.272Z,65.2
2022-10-22T04:03:00.662Z,65.2
2022-10-22T04:04:00.348Z,65.2
2022-10-22T04:05:00.354Z,65.1
2022-10-22T04:06:00.294Z,65.1
2022-10-22T04:07:00.331Z,65.1
2022-10-22T04:08:00.390Z,64.9
2022-10-22T04:09:00.536Z,64.7
2022-10-22T04:10:00.286Z,64.6
2022-10-22T04:11:00.437Z,64.4
2022-10-22T04:12:00.419Z,64.1
2022-10-22T04:13:00.362Z,63.9
2022-10-22T04:14:00.282Z,63.6
2022-10-22T04:15:00.400Z,62.8
2022-10-22T04:16:00.341Z,62.8
2022-10-22T04:17:00.397Z,62.6
2022-10-22T04:18:00.288Z,62.3
2022-10-22T04:19:00.321Z,61.9
2022-10-22T04:20:00.286Z,61.9
2022-10-22T04:21:00.418Z,61.9
2022-10-22T04:22:00.289Z,62.1
2022-10-22T04:23:00.326Z,62.6
2022-10-22T04:24:00.306Z,62.9
2022-10-22T04:25:00.324Z,63.7
2022-10-22T04:26:00.299Z,64.3
2022-10-22T04:27:00.464Z,64.9
2022-10-22T04:28:00.406Z,65.6
2022-10-22T04:29:00.306Z,65.9
2022-10-22T04:30:00.309Z,66.2
2022-10-22T04:31:00.292Z,66.7
2022-10-22T04:32:00.293Z,67.1
2022-10-22T04:33:00.427Z,67.0
2022-10-22T04:34:00.278Z,67.1
2022-10-22T04:35:00.291Z,67.0
2022-10-22T04:36:00.277Z,67.1
2022-10-22T04:37:00.287Z,66.8
2022-10-22T04:38:00.312Z,66.5
2022-10-22T04:39:00.463Z,66.5
2022-10-22T04:40:00.335Z,66.2
2022-10-22T04:41:00.351Z,65.8
2022-10-22T04:42:00.372Z,64.9
2022-10-22T04:43:00.447Z,64.0
2022-10-22T04:44:00.440Z,63.2
2022-10-22T04:45:00.438Z,62.6
2022-10-22T04:46:00.291Z,61.0
2022-10-22T04:47:00.323Z,60.7
2022-10-22T04:48:00.305Z,61.4
2022-10-22T04:49:00.361Z,61.7
2022-10-22T04:50:00.318Z,62.1
2022-10-22T04:51:00.447Z,62.2
2022-10-22T04:52:00.303Z,62.3
2022-10-22T04:53:00.289Z,61.9
2022-10-22T04:54:00.275Z,62.1
2022-10-22T04:55:00.299Z,62.2
2022-10-22T04:56:00.287Z,62.3
2022-10-22T04:57:00.530Z,62.6
2022-10-22T04:58:00.288Z,62.6
2022-10-22T04:59:00.366Z,62.8
2022-10-22T05:00:00.312Z,63.0
2022-10-22T05:01:00.387Z,63.2
2022-10-22T05:02:00.275Z,63.3
2022-10-22T05:03:00.555Z,63.4
2022-10-22T05:04:00.280Z,63.3
2022-10-22T05:05:00.306Z,63.4
2022-10-22T05:06:00.322Z,63.3
2022-10-22T05:07:00.309Z,63.1
2022-10-22T05:08:00.317Z,63.0
2022-10-22T05:09:00.638Z,63.1
2022-10-22T05:10:00.275Z,63.1
2022-10-22T05:11:00.382Z,63.2
2022-10-22T05:12:00.401Z,63.3
2022-10-22T05:13:00.287Z,63.4
2022-10-22T05:14:00.452Z,63.3
2022-10-22T05:15:00.554Z,63.3
2022-10-22T05:16:00.387Z,63.4
2022-10-22T05:17:00.304Z,63.6
2022-10-22T05:18:00.273Z,63.8
2022-10-22T05:19:00.289Z,63.7
2022-10-22T05:20:00.288Z,63.7
2022-10-22T05:21:00.437Z,63.6
2022-10-22T05:22:00.291Z,63.5
2022-10-22T05:23:00.307Z,63.4
2022-10-22T05:24:00.303Z,63.3
2022-10-22T05:25:00.273Z,63.2
2022-10-22T05:26:00.285Z,63.1
2022-10-22T05:27:00.913Z,62.9
2022-10-22T05:28:00.471Z,62.9
2022-10-22T05:29:00.303Z,62.9
2022-10-22T05:30:00.424Z,63.0
2022-10-22T05:31:00.297Z,63.1
2022-10-22T05:32:00.266Z,62.9
2022-10-22T05:33:00.378Z,62.6
2022-10-22T05:34:00.284Z,62.6
2022-10-22T05:35:00.288Z,62.3
2022-10-22T05:36:00.287Z,62.2
2022-10-22T05:37:00.303Z,61.9
2022-10-22T05:38:00.290Z,61.7
2022-10-22T05:39:00.450Z,61.4
2022-10-22T05:40:12.453Z,60.8
2022-10-22T05:41:00.326Z,60.4
2022-10-22T05:42:00.290Z,59.8
2022-10-22T05:43:00.282Z,59.2
2022-10-22T05:44:00.292Z,59.1
2022-10-22T05:45:00.478Z,59.0
2022-10-22T05:46:00.419Z,59.1
2022-10-22T05:47:00.346Z,59.5
2022-10-22T05:48:00.322Z,59.4
2022-10-22T05:49:00.331Z,58.9
2022-10-22T05:50:00.346Z,58.9
2022-10-22T05:51:00.424Z,58.8
2022-10-22T05:52:00.287Z,58.6
2022-10-22T05:53:00.359Z,58.3
2022-10-22T05:54:00.288Z,58.3
2022-10-22T05:55:00.328Z,57.9
2022-10-22T05:56:00.351Z,57.6
2022-10-22T05:57:00.455Z,57.4
2022-10-22T05:58:00.291Z,56.8
2022-10-22T05:59:00.369Z,56.3
2022-10-22T06:00:00.292Z,55.6
2022-10-22T06:01:00.468Z,55.1
2022-10-22T06:02:00.341Z,54.4
2022-10-22T06:03:00.365Z,53.9
2022-10-22T06:04:00.292Z,52.4
2022-10-22T06:05:00.283Z,52.5
2022-10-22T06:06:00.281Z,51.8
2022-10-22T06:07:00.292Z,51.4
2022-10-22T06:08:00.600Z,50.9
2022-10-22T06:09:00.659Z,50.5
2022-10-22T06:10:00.299Z,49.8
2022-10-22T06:11:00.276Z,49.4
2022-10-22T06:12:00.273Z,49.0
2022-10-22T06:13:00.303Z,49.5
2022-10-22T06:14:00.305Z,50.2
2022-10-22T06:15:00.613Z,50.5
2022-10-22T06:16:00.440Z,50.6
2022-10-22T06:17:00.292Z,50.9
2022-10-22T06:18:00.287Z,51.2
2022-10-22T06:19:00.307Z,51.5
2022-10-22T06:20:00.446Z,51.4
2022-10-22T06:21:00.525Z,51.7
2022-10-22T06:22:00.300Z,51.7
2022-10-22T06:23:00.322Z,52.0
2022-10-22T06:24:00.349Z,52.4
2022-10-22T06:25:00.360Z,52.5
2022-10-22T06:26:00.309Z,52.7
2022-10-22T06:27:00.420Z,52.3
2022-10-22T06:28:00.343Z,52.4
2022-10-22T06:29:00.287Z,52.7
2022-10-22T06:30:00.377Z,53.1
2022-10-22T06:31:00.509Z,53.4
2022-10-22T06:32:00.507Z,53.6
2022-10-22T06:33:00.388Z,52.8
2022-10-22T06:34:00.273Z,52.8
2022-10-22T06:35:00.290Z,53.2
2022-10-22T06:36:04.041Z,53.3
2022-10-22T06:37:00.293Z,52.6
2022-10-22T06:38:00.277Z,52.3
2022-10-22T06:39:00.497Z,52.3
2022-10-22T06:40:00.289Z,52.1
2022-10-22T06:41:00.298Z,51.8
2022-10-22T06:42:00.293Z,51.6
2022-10-22T06:43:00.277Z,51.3
2022-10-22T06:44:00.324Z,50.5
2022-10-22T06:46:00.292Z,49.7
2022-10-22T06:47:00.412Z,49.8
2022-10-22T06:48:00.312Z,49.8
2022-10-22T06:49:00.293Z,49.1
2022-10-22T06:50:00.301Z,49.1
2022-10-22T06:51:00.626Z,47.9
2022-10-22T06:52:00.287Z,48.2
2022-10-22T06:53:00.366Z,48.3
2022-10-22T06:54:00.284Z,47.3
2022-10-22T06:55:00.357Z,44.6
2022-10-22T06:56:00.340Z,45.2
2022-10-22T06:57:00.592Z,44.2
2022-10-22T06:58:00.321Z,45.4
2022-10-22T06:59:00.366Z,45.8
2022-10-22T07:00:00.322Z,45.9
2022-10-22T07:01:00.396Z,44.0
2022-10-22T07:02:00.327Z,44.3
2022-10-22T07:03:00.665Z,44.7
2022-10-22T07:04:00.359Z,43.8
2022-10-22T07:05:00.342Z,44.0
2022-10-22T07:06:00.285Z,44.0
2022-10-22T07:07:00.445Z,42.9
2022-10-22T07:08:00.488Z,43.2
2022-10-22T07:09:00.854Z,43.4
2022-10-22T07:10:00.468Z,43.8
2022-10-22T07:11:00.364Z,44.0
2022-10-22T07:12:00.367Z,43.9
2022-10-22T07:13:00.323Z,44.1
2022-10-22T07:14:00.459Z,43.9
2022-10-22T07:15:00.519Z,43.5
2022-10-22T07:16:00.531Z,43.2
2022-10-22T07:17:00.366Z,42.5
2022-10-22T07:18:00.474Z,41.0
2022-10-22T07:19:00.357Z,41.2
2022-10-22T07:20:00.376Z,41.2
2022-10-22T07:21:00.466Z,42.1
2022-10-22T07:22:00.316Z,42.9
2022-10-22T07:23:00.302Z,43.2
2022-10-22T07:24:00.329Z,43.1
2022-10-22T07:25:05.153Z,43.4
2022-10-22T07:26:00.306Z,43.3
2022-10-22T07:27:00.555Z,43.4
2022-10-22T07:28:00.290Z,44.0
2022-10-22T07:29:00.302Z,44.5
2022-10-22T07:30:00.328Z,44.8
2022-10-22T07:31:00.295Z,44.8
2022-10-22T07:32:00.307Z,45.3
2022-10-22T07:33:00.584Z,45.9
2022-10-22T07:34:00.285Z,45.9
2022-10-22T07:35:00.314Z,46.2
2022-10-22T07:36:00.312Z,46.8
2022-10-22T07:37:00.309Z,47.4
2022-10-22T07:38:00.300Z,47.3
2022-10-22T07:39:00.442Z,47.5
2022-10-22T07:40:03.696Z,47.4
2022-10-22T07:41:00.505Z,46.9
2022-10-22T07:42:00.294Z,46.3
2022-10-22T07:43:00.613Z,46.2
2022-10-22T07:44:00.429Z,46.2
2022-10-22T07:45:00.508Z,46.6
2022-10-22T07:46:00.281Z,47.0
2022-10-22T07:47:00.346Z,47.5
2022-10-22T07:48:00.302Z,47.9
2022-10-22T07:49:00.557Z,48.3
2022-10-22T07:50:00.486Z,48.3
2022-10-22T07:51:00.562Z,48.3
2022-10-22T07:52:00.335Z,48.6
2022-10-22T07:53:00.287Z,48.9
2022-10-22T07:54:00.289Z,49.5
2022-10-22T07:55:00.372Z,49.9
2022-10-22T07:56:00.300Z,50.2
2022-10-22T07:57:00.465Z,50.5
2022-10-22T07:58:00.323Z,51.1
2022-10-22T08:00:00.303Z,51.9
2022-10-22T08:01:00.408Z,52.7
2022-10-22T08:02:00.324Z,52.9
2022-10-22T08:03:00.537Z,53.3
2022-10-22T08:04:00.375Z,53.9
2022-10-22T08:05:00.322Z,54.1
2022-10-22T08:06:00.305Z,54.0
2022-10-22T08:07:00.313Z,53.8
2022-10-22T08:08:00.296Z,53.6
2022-10-22T08:09:00.592Z,53.7
2022-10-22T08:10:00.276Z,53.6
2022-10-22T08:11:00.319Z,53.7
2022-10-22T08:12:00.301Z,54.0
2022-10-22T08:13:00.391Z,54.5
2022-10-22T08:14:00.377Z,54.5
2022-10-22T08:15:00.502Z,54.6
2022-10-22T08:16:00.385Z,54.7
2022-10-22T08:17:00.297Z,54.9
2022-10-22T08:18:00.559Z,55.5
2022-10-22T08:19:00.298Z,56.1
2022-10-22T08:20:00.520Z,56.2
2022-10-22T08:21:00.436Z,56.8
2022-10-22T08:22:00.307Z,56.7
2022-10-22T08:23:00.301Z,56.6
2022-10-22T08:24:00.341Z,57.2
2022-10-22T08:25:00.312Z,57.6
2022-10-22T08:26:00.313Z,57.4
2022-10-22T08:27:00.531Z,58.5
2022-10-22T08:28:00.285Z,58.0
2022-10-22T08:29:00.284Z,58.0
2022-10-22T08:30:00.286Z,57.9
2022-10-22T08:31:00.325Z,58.0
2022-10-22T08:32:00.323Z,58.3
2022-10-22T08:33:00.487Z,58.1
2022-10-22T08:34:00.288Z,57.8
2022-10-22T08:35:00.388Z,57.7
2022-10-22T08:36:00.478Z,57.8
2022-10-22T08:37:00.313Z,58.1
2022-10-22T08:38:00.299Z,58.2
2022-10-22T08:39:00.479Z,58.9
2022-10-22T08:40:00.314Z,59.3
2022-10-22T08:41:00.374Z,59.9
2022-10-22T08:42:00.316Z,60.0
2022-10-22T08:43:00.296Z,60.6
2022-10-22T08:44:00.354Z,60.7
2022-10-22T08:45:00.466Z,61.0
2022-10-22T08:46:00.328Z,60.9
2022-10-22T08:47:00.407Z,61.2
2022-10-22T08:48:00.365Z,61.1
2022-10-22T08:49:00.381Z,61.2
2022-10-22T08:50:00.307Z,61.1
2022-10-22T08:51:00.531Z,61.1
2022-10-22T08:52:00.355Z,61.2
2022-10-22T08:53:00.433Z,61.0
2022-10-22T08:54:00.292Z,61.1
2022-10-22T08:55:00.308Z,61.0
2022-10-22T08:56:00.475Z,61.1
2022-10-22T08:57:00.490Z,61.0
2022-10-22T08:58:00.299Z,61.2
2022-10-22T08:59:00.315Z,61.0
2022-10-22T09:00:00.294Z,61.1
2022-10-22T09:01:00.287Z,60.9
2022-10-22T09:02:00.386Z,60.9
2022-10-22T09:03:00.616Z,60.8
2022-10-22T09:04:00.350Z,60.5
2022-10-22T09:05:00.328Z,60.4
2022-10-22T09:06:00.496Z,60.3
2022-10-22T09:07:00.301Z,60.3
2022-10-22T09:08:00.321Z,60.4
2022-10-22T09:09:00.595Z,60.6
2022-10-22T09:10:00.301Z,61.1
2022-10-22T09:11:00.343Z,61.2
2022-10-22T09:12:00.326Z,61.8
2022-10-22T09:13:00.330Z,61.7
2022-10-22T09:14:00.302Z,61.8
2022-10-22T09:15:00.471Z,61.8
2022-10-22T09:16:00.317Z,61.6
2022-10-22T09:17:00.322Z,61.4
2022-10-22T09:18:00.301Z,61.3
2022-10-22T09:19:00.368Z,61.2
2022-10-22T09:20:00.305Z,61.3
2022-10-22T09:21:00.568Z,61.6
2022-10-22T09:22:00.335Z,61.8
2022-10-22T09:23:00.374Z,62.1
2022-10-22T09:24:00.291Z,62.9
2022-10-22T09:25:00.377Z,63.1
2022-10-22T09:26:00.326Z,63.2
2022-10-22T09:27:00.508Z,63.6
2022-10-22T09:28:00.339Z,63.6
2022-10-22T09:29:00.412Z,63.4
2022-10-22T09:30:00.294Z,63.2
2022-10-22T09:31:00.335Z,63.0
2022-10-22T09:32:00.321Z,62.9
2022-10-22T09:33:00.516Z,62.8
2022-10-22T09:34:00.323Z,62.6
2022-10-22T09:35:00.456Z,62.5
2022-10-22T09:36:00.460Z,62.4
2022-10-22T09:37:00.394Z,62.3
2022-10-22T09:38:00.295Z,62.2
2022-10-22T09:39:00.633Z,62.0
2022-10-22T09:40:00.321Z,61.9
2022-10-22T09:41:00.305Z,61.7
2022-10-22T09:42:00.286Z,61.5
2022-10-22T09:43:00.313Z,61.3
2022-10-22T09:44:00.312Z,61.3
2022-10-22T09:45:00.441Z,61.5
2022-10-22T09:46:00.298Z,61.6
2022-10-22T09:47:00.314Z,61.7
2022-10-22T09:48:02.384Z,61.9
2022-10-22T09:49:00.334Z,61.9
2022-10-22T09:50:00.437Z,61.9
2022-10-22T09:51:00.576Z,61.9
2022-10-22T09:52:00.353Z,61.7
2022-10-22T09:53:00.458Z,61.2
2022-10-22T09:54:00.312Z,61.2
2022-10-22T09:55:00.444Z,61.2
2022-10-22T09:56:00.306Z,61.2
2022-10-22T09:57:00.432Z,61.1
2022-10-22T09:58:00.403Z,60.9
2022-10-22T09:59:00.387Z,60.9
2022-10-22T10:00:00.311Z,60.8
2022-10-22T10:01:00.365Z,60.8
2022-10-22T10:02:13.405Z,60.7
2022-10-22T10:03:00.608Z,60.6
2022-10-22T10:04:00.299Z,60.5
2022-10-22T10:05:00.288Z,60.6
2022-10-22T10:06:04.732Z,60.3
2022-10-22T10:07:00.316Z,60.3
2022-10-22T10:08:00.343Z,60.2
2022-10-22T10:09:00.579Z,60.2
2022-10-22T10:10:00.295Z,59.9
2022-10-22T10:11:00.381Z,59.7
2022-10-22T10:12:00.292Z,59.5
2022-10-22T10:13:00.469Z,59.6
2022-10-22T10:14:00.311Z,59.4
2022-10-22T10:15:00.417Z,60.1
2022-10-22T10:16:00.277Z,60.6
2022-10-22T10:17:00.425Z,60.3
2022-10-22T10:18:00.315Z,59.3
2022-10-22T10:19:00.287Z,58.7
2022-10-22T10:20:03.712Z,58.9
2022-10-22T10:21:00.465Z,59.4
2022-10-22T10:22:00.383Z,59.4
2022-10-22T10:23:00.285Z,59.5
2022-10-22T10:24:00.304Z,59.2
2022-10-22T10:25:00.302Z,59.1
2022-10-22T10:26:00.312Z,59.2
2022-10-22T10:27:00.922Z,58.9
2022-10-22T10:28:00.326Z,58.9
2022-10-22T10:29:00.292Z,59.0
2022-10-22T10:30:00.285Z,59.3
2022-10-22T10:31:00.389Z,59.4
2022-10-22T10:32:00.353Z,59.1
2022-10-22T10:33:00.455Z,58.9
2022-10-22T10:34:00.300Z,59.0
2022-10-22T10:35:00.303Z,59.0
2022-10-22T10:36:00.383Z,58.8
2022-10-22T10:37:00.468Z,59.1
2022-10-22T10:38:00.295Z,58.8
2022-10-22T10:39:00.415Z,58.5
2022-10-22T10:40:00.305Z,58.7
2022-10-22T10:41:00.327Z,58.7
2022-10-22T10:42:00.307Z,58.6
2022-10-22T10:43:00.298Z,59.0
2022-10-22T10:44:00.276Z,59.3
2022-10-22T10:45:00.428Z,58.9
2022-10-22T10:46:00.280Z,59.4
2022-10-22T10:47:00.313Z,59.7
2022-10-22T10:48:00.303Z,59.9
2022-10-22T10:49:00.311Z,60.2
2022-10-22T10:50:00.301Z,60.5
2022-10-22T10:51:00.602Z,60.9
2022-10-22T10:52:00.443Z,60.3
2022-10-22T10:53:00.273Z,60.1
2022-10-22T10:54:00.305Z,60.0
2022-10-22T10:55:00.310Z,60.1
2022-10-22T10:56:00.312Z,59.9
2022-10-22T10:57:00.419Z,60.0
2022-10-22T10:58:00.278Z,59.9
2022-10-22T10:59:00.306Z,60.3
2022-10-22T11:00:00.313Z,59.5
2022-10-22T11:01:00.353Z,59.3
2022-10-22T11:02:00.327Z,59.5
2022-10-22T11:03:00.459Z,59.4
2022-10-22T11:04:00.280Z,59.3
2022-10-22T11:05:00.301Z,59.3
2022-10-22T11:06:00.338Z,59.2
2022-10-22T11:07:10.970Z,59.0
2022-10-22T11:08:00.500Z,58.6
2022-10-22T11:09:00.572Z,58.1
2022-10-22T11:10:00.330Z,57.7
2022-10-22T11:11:00.363Z,57.5
2022-10-22T11:12:00.292Z,56.8
2022-10-22T11:13:00.307Z,56.8
2022-10-22T11:14:00.310Z,56.6
2022-10-22T11:15:00.446Z,56.7
2022-10-22T11:16:00.277Z,56.9
2022-10-22T11:17:00.314Z,57.4
2022-10-22T11:18:00.300Z,57.0
2022-10-22T11:19:00.298Z,56.3
2022-10-22T11:20:00.561Z,56.2
2022-10-22T11:21:00.599Z,55.6
2022-10-22T11:22:00.374Z,55.3
2022-10-22T11:23:18.859Z,55.0
2022-10-22T11:24:00.303Z,54.2
2022-10-22T11:25:00.332Z,54.5
2022-10-22T11:26:00.304Z,53.9
2022-10-22T11:27:00.536Z,53.3
2022-10-22T11:28:06.614Z,53.0
2022-10-22T11:29:00.297Z,51.6
2022-10-22T11:30:00.292Z,51.3
2022-10-22T11:31:00.390Z,52.2
2022-10-22T11:32:00.333Z,51.4
2022-10-22T11:33:00.577Z,51.0
2022-10-22T11:34:04.847Z,51.9
2022-10-22T11:35:00.328Z,52.5
2022-10-22T11:36:00.297Z,52.1
2022-10-22T11:37:00.494Z,51.6
2022-10-22T11:38:00.307Z,51.6
2022-10-22T11:39:00.424Z,52.3
2022-10-22T11:40:00.296Z,52.6
2022-10-22T11:41:00.294Z,52.3
2022-10-22T11:42:00.278Z,51.6
2022-10-22T11:43:00.301Z,52.3
2022-10-22T11:44:00.304Z,52.3
2022-10-22T11:45:00.461Z,52.5
2022-10-22T11:46:00.359Z,51.9
2022-10-22T11:47:00.313Z,53.4
2022-10-22T11:48:00.395Z,53.6
2022-10-22T11:49:00.299Z,53.4
2022-10-22T11:50:00.362Z,53.2
2022-10-22T11:51:00.465Z,52.7
2022-10-22T11:52:04.281Z,53.0
2022-10-22T11:53:00.346Z,53.8
2022-10-22T11:54:00.323Z,53.9
2022-10-22T11:55:00.292Z,53.8
2022-10-22T11:56:00.491Z,53.6
2022-10-22T11:57:00.698Z,53.9
2022-10-22T11:58:00.373Z,53.5
2022-10-22T11:59:00.562Z,53.3
2022-10-22T12:00:00.318Z,52.6
2022-10-22T12:01:00.297Z,52.6
2022-10-22T12:02:00.331Z,51.8
2022-10-22T12:03:00.435Z,51.4
2022-10-22T12:04:00.300Z,50.9
2022-10-22T12:05:00.312Z,51.1
2022-10-22T12:06:00.369Z,50.5
2022-10-22T12:07:00.749Z,50.4
2022-10-22T12:08:00.462Z,50.2
2022-10-22T12:09:00.400Z,49.2
2022-10-22T12:10:00.409Z,48.5
2022-10-22T12:11:00.466Z,48.0
2022-10-22T12:12:00.319Z,48.6
2022-10-22T12:13:00.696Z,49.1
2022-10-22T12:14:00.470Z,49.2
2022-10-22T12:15:00.491Z,49.5
2022-10-22T12:16:00.417Z,50.1
2022-10-22T12:17:00.303Z,49.9
2022-10-22T12:18:00.427Z,50.7
2022-10-22T12:19:00.352Z,50.3
2022-10-22T12:20:02.221Z,50.3
2022-10-22T12:21:00.566Z,49.8
2022-10-22T12:22:00.370Z,49.4
2022-10-22T12:23:00.397Z,49.9
2022-10-22T12:24:00.339Z,50.2
2022-10-22T12:25:00.286Z,50.3
2022-10-22T12:26:00.298Z,50.8
2022-10-22T12:27:00.631Z,51.2
2022-10-22T12:28:00.300Z,50.4
2022-10-22T12:29:00.294Z,52.5
2022-10-22T12:30:00.331Z,52.0
2022-10-22T12:31:00.278Z,51.3
2022-10-22T12:32:00.568Z,51.9
2022-10-22T12:33:00.439Z,51.8
2022-10-22T12:34:00.303Z,51.4
2022-10-22T12:35:00.377Z,51.7
2022-10-22T12:36:00.485Z,52.3
2022-10-22T12:37:00.296Z,52.1
2022-10-22T12:38:00.514Z,52.8
2022-10-22T12:39:00.422Z,52.3
2022-10-22T12:40:00.414Z,52.3
2022-10-22T12:41:00.294Z,53.7
2022-10-22T12:42:00.341Z,54.0
2022-10-22T12:43:00.450Z,54.0
2022-10-22T12:44:00.343Z,53.5
2022-10-22T12:45:00.445Z,53.6
2022-10-22T12:46:00.301Z,53.3
2022-10-22T12:47:00.326Z,52.9
2022-10-22T12:48:00.296Z,52.5
2022-10-22T12:49:00.300Z,52.8
2022-10-22T12:50:00.311Z,52.7
2022-10-22T12:51:00.429Z,52.4
2022-10-22T12:52:00.294Z,52.7
2022-10-22T12:53:00.563Z,52.8
2022-10-22T12:54:00.584Z,52.8
2022-10-22T12:55:00.293Z,52.9
2022-10-22T12:56:00.288Z,53.2
2022-10-22T12:57:00.454Z,53.4
2022-10-22T12:58:00.286Z,53.1
2022-10-22T12:59:00.308Z,54.2
2022-10-22T13:01:00.375Z,54.6
2022-10-22T13:02:00.312Z,54.1
2022-10-22T13:03:00.431Z,54.7
2022-10-22T13:04:00.300Z,54.5
2022-10-22T13:05:00.300Z,54.0
2022-10-22T13:06:00.297Z,54.4
2022-10-22T13:07:00.297Z,53.9
2022-10-22T13:08:00.304Z,53.7
2022-10-22T13:09:00.633Z,54.0
2022-10-22T13:10:00.314Z,54.2
2022-10-22T13:11:00.326Z,54.1
2022-10-22T13:12:00.511Z,54.4
2022-10-22T13:13:00.553Z,54.4
2022-10-22T13:14:00.462Z,54.9
2022-10-22T13:15:00.453Z,55.4
2022-10-22T13:16:00.337Z,55.4
2022-10-22T13:17:00.361Z,55.4
2022-10-22T13:18:00.359Z,54.9
2022-10-22T13:19:00.527Z,54.5
2022-10-22T13:20:00.323Z,54.5
2022-10-22T13:21:00.506Z,54.5
2022-10-22T13:22:00.396Z,54.5
2022-10-22T13:23:00.422Z,54.5